Time;durP1;ratioP1;P1;durP2;ratioP2;P2;SDS_P1;SDS_P2;PMS_P1;PMS_P2;Temp;Humidity;BMP_temperature;BMP_pressure;BME280_temperature;BME280_humidity;BME280_pressure;Samples;Min_cycle;Max_cycle;Signal;HPM_P1;HPM_P2
2023/03/18 00:02:01;;;;;;;15.85;5.78;;;9.90;44.90;;;;;;4995296;28;20057;-78
2023/03/18 00:04:26;;;;;;;13.88;6.95;;;9.90;44.60;;;;;;4994139;28;20035;-78
2023/03/18 00:06:53;;;;;;;12.50;6.57;;;9.80;44.60;;;;;;4995280;28;20049;-79
2023/03/18 00:09:19;;;;;;;16.40;7.78;;;9.80;44.20;;;;;;4993769;28;20487;-78
2023/03/18 00:11:45;;;;;;;23.30;12.07;;;9.80;44.30;;;;;;4995369;28;20116;-79
2023/03/18 00:14:12;;;;;;;21.40;9.27;;;9.70;44.30;;;;;;4993983;28;20205;-78
2023/03/18 00:16:37;;;;;;;16.70;8.18;;;9.70;44.70;;;;;;4995251;28;20070;-78
2023/03/18 00:19:03;;;;;;;25.15;11.38;;;9.70;44.70;;;;;;4994800;28;20064;-79
2023/03/18 00:21:30;;;;;;;25.40;12.10;;;9.70;44.30;;;;;;4985379;28;20030;-78
2023/03/18 00:23:57;;;;;;;25.13;9.35;;;9.70;44.60;;;;;;4995061;28;20113;-78
2023/03/18 00:26:24;;;;;;;12.75;6.22;;;9.60;43.90;;;;;;4992621;28;20027;-78
2023/03/18 00:28:51;;;;;;;15.43;7.50;;;9.60;43.90;;;;;;4994643;28;20125;-78
2023/03/18 00:31:17;;;;;;;14.00;6.13;;;9.60;43.90;;;;;;4994885;28;20386;-78
2023/03/18 00:33:44;;;;;;;12.00;6.13;;;9.70;43.90;;;;;;4993494;28;20125;-79
2023/03/18 00:36:15;;;;;;;20.30;6.50;;;9.70;44.30;;;;;;4994369;28;20032;-78
2023/03/18 00:38:45;;;;;;;13.05;6.28;;;9.60;45.20;;;;;;4994090;28;20101;-78
2023/03/18 00:41:14;;;;;;;11.38;5.45;;;9.60;44.90;;;;;;4994086;28;20114;-79
2023/03/18 00:43:51;;;;;;;11.15;5.60;;;9.60;44.60;;;;;;4992526;28;20026;-78
2023/03/18 00:46:25;;;;;;;19.92;6.40;;;9.60;44.50;;;;;;4991747;28;20030;-78
2023/03/18 00:48:54;;;;;;;17.27;6.13;;;9.60;44.20;;;;;;4992537;28;20034;-79
2023/03/18 00:51:21;;;;;;;15.15;6.75;;;9.60;43.90;;;;;;4992107;28;20053;-78
2023/03/18 00:53:50;;;;;;;12.80;6.07;;;9.60;43.80;;;;;;4994912;28;20564;-79
2023/03/18 00:56:19;;;;;;;17.02;6.13;;;9.60;43.90;;;;;;4994770;28;20125;-79
2023/03/18 00:58:46;;;;;;;10.43;5.53;;;9.60;44.10;;;;;;4993600;28;20026;-78
2023/03/18 01:01:12;;;;;;;12.18;6.18;;;9.60;44.40;;;;;;4993216;28;20388;-79
2023/03/18 01:03:42;;;;;;;12.88;5.53;;;9.60;44.30;;;;;;4994665;28;20476;-78
2023/03/18 01:06:14;;;;;;;11.70;5.65;;;9.60;44.40;;;;;;4994382;28;20046;-79
2023/03/18 01:08:41;;;;;;;13.05;6.05;;;9.50;44.70;;;;;;4994201;28;20042;-79
2023/03/18 01:11:08;;;;;;;16.80;6.18;;;9.50;44.80;;;;;;4994065;28;20070;-79
2023/03/18 01:13:36;;;;;;;11.52;5.65;;;9.50;44.70;;;;;;4992951;28;20489;-78
2023/03/18 01:16:03;;;;;;;12.45;5.25;;;9.50;44.60;;;;;;4993720;28;20070;-79
2023/03/18 01:18:29;;;;;;;12.27;5.75;;;9.50;44.40;;;;;;4994296;28;20033;-78
2023/03/18 01:20:55;;;;;;;11.27;5.68;;;9.50;44.60;;;;;;4991768;28;20031;-78
2023/03/18 01:23:22;;;;;;;12.43;5.50;;;9.40;44.60;;;;;;4994031;28;20324;-79
2023/03/18 01:25:48;;;;;;;12.85;5.90;;;9.40;44.70;;;;;;4993156;28;20152;-78
2023/03/18 01:28:14;;;;;;;10.93;5.55;;;9.40;45.00;;;;;;4993380;28;20109;-79
2023/03/18 01:30:41;;;;;;;11.90;5.40;;;9.40;44.70;;;;;;4993907;28;20117;-78
2023/03/18 01:33:07;;;;;;;11.85;5.70;;;9.40;44.80;;;;;;4993509;28;20030;-78
2023/03/18 01:35:35;;;;;;;10.25;5.30;;;9.30;45.10;;;;;;4993708;28;20173;-78
2023/03/18 01:38:03;;;;;;;9.48;4.80;;;9.30;45.00;;;;;;4993831;28;20023;-79
2023/03/18 01:40:34;;;;;;;10.60;5.85;;;9.20;45.00;;;;;;4990320;28;20031;-78
2023/03/18 01:43:21;;;;;;;10.43;4.97;;;9.20;45.70;;;;;;4991831;28;20368;-78
2023/03/18 01:45:52;;;;;;;8.75;5.10;;;9.10;45.70;;;;;;4993548;28;20026;-78
2023/03/18 01:48:22;;;;;;;12.15;5.45;;;9.10;45.60;;;;;;4993370;28;20514;-78
2023/03/18 01:50:55;;;;;;;9.70;5.30;;;9.10;45.80;;;;;;4992020;28;20029;-78
2023/03/18 01:53:22;;;;;;;8.65;5.05;;;9.00;46.20;;;;;;5008612;28;20026;-79
2023/03/18 01:55:49;;;;;;;11.82;5.95;;;9.00;45.90;;;;;;4993325;28;20042;-79
2023/03/18 01:58:21;;;;;;;16.27;6.80;;;8.90;46.10;;;;;;4992123;28;20019;-79
2023/03/18 02:01:32;;;;;;;12.68;5.75;;;8.90;46.10;;;;;;4992086;28;20048;-79
2023/03/18 02:04:00;;;;;;;10.15;5.38;;;8.80;46.10;;;;;;4921796;29;20040;-79
2023/03/18 02:06:26;;;;;;;18.30;6.25;;;8.80;46.40;;;;;;4919871;29;20047;-78
2023/03/18 02:08:52;;;;;;;12.80;5.70;;;8.70;46.40;;;;;;4918933;29;20047;-78
2023/03/18 02:11:19;;;;;;;11.80;5.53;;;8.70;45.90;;;;;;4903028;29;20043;-78
2023/03/18 02:13:45;;;;;;;11.73;5.60;;;8.70;45.80;;;;;;4920611;29;20043;-78
2023/03/18 02:16:27;;;;;;;10.82;5.43;;;8.60;45.70;;;;;;4918514;29;20044;-78
2023/03/18 02:18:58;;;;;;;12.38;5.50;;;8.60;45.80;;;;;;4918774;29;20035;-78
2023/03/18 02:21:55;;;;;;;10.77;5.60;;;8.60;45.80;;;;;;4922776;29;20118;-78
2023/03/18 02:24:28;;;;;;;10.18;5.18;;;8.50;45.60;;;;;;4914995;29;20028;-78
2023/03/18 02:27:23;;;;;;;10.52;6.13;;;8.50;46.00;;;;;;4904553;29;20406;-79
2023/03/18 02:29:56;;;;;;;10.55;5.70;;;8.50;45.70;;;;;;4920452;29;20052;-79
2023/03/18 02:32:26;;;;;;;13.65;5.57;;;8.50;45.80;;;;;;4903140;29;20043;-78
2023/03/18 02:34:52;;;;;;;7.53;4.57;;;8.40;45.80;;;;;;4964581;28;20424;-78
2023/03/18 02:37:18;;;;;;;12.57;5.90;;;8.40;46.20;;;;;;4992373;28;20104;-79
2023/03/18 02:39:44;;;;;;;8.75;5.28;;;8.30;47.10;;;;;;4991284;28;20072;-79
2023/03/18 02:42:13;;;;;;;10.98;5.55;;;8.30;46.60;;;;;;4994880;28;20030;-79
2023/03/18 02:44:45;;;;;;;11.15;4.97;;;8.30;46.90;;;;;;4990550;28;20037;-79
2023/03/18 02:47:19;;;;;;;15.68;6.22;;;8.30;46.60;;;;;;4990899;28;20033;-78
2023/03/18 02:49:45;;;;;;;14.40;6.40;;;8.20;47.00;;;;;;4992183;28;20037;-78
2023/03/18 02:52:11;;;;;;;10.05;5.95;;;8.20;47.00;;;;;;4991331;28;20038;-79
2023/03/18 02:54:37;;;;;;;14.68;7.13;;;8.20;46.90;;;;;;4989975;28;20036;-79
2023/03/18 02:57:03;;;;;;;17.63;10.38;;;8.10;47.00;;;;;;4991101;28;20180;-78
2023/03/18 02:59:31;;;;;;;17.83;8.48;;;8.10;47.60;;;;;;4990497;28;20026;-78
2023/03/18 03:01:57;;;;;;;12.55;6.68;;;8.00;47.20;;;;;;4990893;28;20387;-78
2023/03/18 03:04:24;;;;;;;14.50;6.55;;;8.00;47.20;;;;;;4992455;28;20030;-79
2023/03/18 03:06:51;;;;;;;20.98;8.02;;;7.90;47.10;;;;;;4990980;28;20034;-78
2023/03/18 03:09:18;;;;;;;15.90;7.28;;;7.90;47.70;;;;;;4991993;28;20583;-78
2023/03/18 03:11:46;;;;;;;17.67;6.97;;;7.80;47.90;;;;;;4990238;28;20038;-78
2023/03/18 03:14:13;;;;;;;12.35;6.78;;;7.80;47.70;;;;;;4991003;28;20105;-78
2023/03/18 03:16:39;;;;;;;9.85;6.05;;;7.70;47.70;;;;;;4991907;28;21365;-78
2023/03/18 03:19:05;;;;;;;9.68;5.35;;;7.70;47.60;;;;;;4992199;28;20031;-78
2023/03/18 03:21:34;;;;;;;12.60;6.57;;;7.70;47.30;;;;;;4992174;28;20031;-78
2023/03/18 03:24:05;;;;;;;14.68;6.93;;;7.60;47.60;;;;;;4992160;28;20022;-79
2023/03/18 03:26:31;;;;;;;11.43;6.05;;;7.60;47.70;;;;;;4992202;28;20040;-78
2023/03/18 03:28:57;;;;;;;11.18;5.65;;;7.60;47.70;;;;;;4991756;28;20042;-78
2023/03/18 03:31:23;;;;;;;15.30;7.50;;;7.60;47.50;;;;;;4991791;28;20415;-79
2023/03/18 03:33:49;;;;;;;13.02;7.30;;;7.60;47.70;;;;;;4991982;28;20030;-78
2023/03/18 03:36:16;;;;;;;12.45;6.18;;;7.60;48.00;;;;;;4991877;28;20034;-78
2023/03/18 03:38:42;;;;;;;13.27;6.80;;;7.60;48.10;;;;;;4990847;28;20038;-79
2023/03/18 03:41:10;;;;;;;14.32;6.90;;;7.60;48.30;;;;;;4992055;28;20022;-78
2023/03/18 03:43:39;;;;;;;16.83;7.53;;;7.60;48.30;;;;;;4992089;28;20176;-79
2023/03/18 03:46:06;;;;;;;12.65;6.15;;;7.50;48.50;;;;;;4991900;28;20041;-78
2023/03/18 03:48:32;;;;;;;15.43;6.68;;;7.50;48.70;;;;;;4991927;28;20137;-78
2023/03/18 03:50:58;;;;;;;17.13;6.65;;;7.50;49.00;;;;;;4991404;28;20392;-79
2023/03/18 03:53:25;;;;;;;13.00;6.47;;;7.50;49.20;;;;;;4991882;28;20037;-79
2023/03/18 03:55:52;;;;;;;12.25;6.60;;;7.50;49.30;;;;;;4989651;28;20035;-79
2023/03/18 03:58:18;;;;;;;12.93;6.50;;;7.50;49.30;;;;;;4990398;28;20022;-79
2023/03/18 04:00:44;;;;;;;10.25;6.10;;;7.40;49.60;;;;;;4991966;28;20038;-80
2023/03/18 04:03:10;;;;;;;19.25;7.90;;;7.40;49.70;;;;;;4991577;28;20398;-78
2023/03/18 04:05:36;;;;;;;15.45;7.68;;;7.40;49.90;;;;;;4991759;28;20018;-78
2023/03/18 04:08:02;;;;;;;13.52;6.68;;;7.40;50.10;;;;;;4991688;28;20081;-79
2023/03/18 04:10:29;;;;;;;12.98;7.72;;;7.30;50.00;;;;;;4990552;28;20049;-78
2023/03/18 04:12:55;;;;;;;13.98;7.65;;;7.30;50.20;;;;;;4991790;28;20030;-79
2023/03/18 04:15:21;;;;;;;17.83;8.00;;;7.30;50.50;;;;;;4991494;28;20049;-79
2023/03/18 04:17:50;;;;;;;13.77;7.50;;;7.20;50.50;;;;;;4990554;28;20550;-78
2023/03/18 04:20:17;;;;;;;11.98;6.72;;;7.20;50.50;;;;;;4989581;28;20519;-78
2023/03/18 04:22:44;;;;;;;13.93;6.82;;;7.20;50.30;;;;;;4993892;28;20084;-78
2023/03/18 04:25:11;;;;;;;12.52;7.25;;;7.20;50.50;;;;;;4994855;28;20105;-79
2023/03/18 04:27:37;;;;;;;17.42;7.07;;;7.20;50.30;;;;;;4994951;28;20498;-79
2023/03/18 04:30:05;;;;;;;11.57;6.38;;;7.20;50.50;;;;;;4982838;28;20031;-79
2023/03/18 04:32:31;;;;;;;17.15;6.60;;;7.20;50.50;;;;;;4995039;28;20030;-78
2023/03/18 04:34:57;;;;;;;12.10;5.63;;;7.10;50.30;;;;;;4992759;28;20037;-78
2023/03/18 04:37:23;;;;;;;12.27;5.97;;;7.20;50.20;;;;;;4994939;28;20035;-79
2023/03/18 04:39:49;;;;;;;13.45;6.85;;;7.10;50.10;;;;;;4993881;28;20026;-79
2023/03/18 04:42:15;;;;;;;12.90;6.50;;;7.10;50.60;;;;;;4994788;28;20033;-78
2023/03/18 04:44:41;;;;;;;13.35;6.70;;;7.10;50.80;;;;;;4994762;28;20031;-79
2023/03/18 04:47:07;;;;;;;14.43;6.15;;;7.10;51.10;;;;;;4994557;28;20033;-79
2023/03/18 04:49:33;;;;;;;13.55;6.70;;;7.10;51.00;;;;;;4994816;28;20026;-79
2023/03/18 04:51:59;;;;;;;10.35;6.38;;;7.10;50.80;;;;;;4993328;28;20113;-79
2023/03/18 04:54:26;;;;;;;20.05;8.57;;;7.10;50.70;;;;;;4993321;28;20138;-78
2023/03/18 04:56:52;;;;;;;22.38;10.07;;;7.10;51.00;;;;;;4993425;28;20530;-79
2023/03/18 04:59:17;;;;;;;16.65;9.57;;;7.00;51.40;;;;;;4994103;28;20117;-79
2023/03/18 05:01:43;;;;;;;41.70;21.13;;;7.00;51.40;;;;;;4994324;28;20391;-78
2023/03/18 05:04:09;;;;;;;28.85;16.92;;;7.00;51.40;;;;;;4994456;28;20073;-79
2023/03/18 05:06:36;;;;;;;25.23;12.15;;;7.00;51.10;;;;;;4994519;28;20542;-78
2023/03/18 05:09:04;;;;;;;31.50;9.35;;;7.00;51.10;;;;;;4994444;28;20387;-78
2023/03/18 05:11:30;;;;;;;13.70;8.07;;;7.00;50.90;;;;;;4994473;28;20460;-79
2023/03/18 05:13:56;;;;;;;19.52;8.30;;;7.00;50.80;;;;;;4994318;28;20034;-78
2023/03/18 05:16:23;;;;;;;13.73;7.70;;;7.00;50.70;;;;;;4994132;28;20499;-78
2023/03/18 05:18:50;;;;;;;16.67;8.05;;;7.00;50.70;;;;;;4994137;28;20061;-78
2023/03/18 05:21:16;;;;;;;15.38;8.02;;;7.00;50.90;;;;;;4994273;28;20030;-78
2023/03/18 05:23:42;;;;;;;16.77;9.27;;;7.00;50.90;;;;;;4992964;28;20052;-78
2023/03/18 05:26:08;;;;;;;22.25;8.98;;;7.00;51.20;;;;;;4992891;28;20440;-79
2023/03/18 05:28:34;;;;;;;19.73;8.35;;;6.90;51.20;;;;;;4993721;28;20069;-80
2023/03/18 05:31:01;;;;;;;17.02;7.93;;;6.90;51.00;;;;;;4993669;28;20034;-77
2023/03/18 05:33:27;;;;;;;19.92;8.48;;;6.90;50.90;;;;;;4993763;28;20027;-78
2023/03/18 05:35:53;;;;;;;17.38;8.35;;;6.90;50.90;;;;;;4993830;28;20069;-78
2023/03/18 05:38:19;;;;;;;15.98;8.10;;;6.90;51.00;;;;;;4993932;28;20049;-78
2023/03/18 05:40:45;;;;;;;17.33;8.85;;;6.90;51.00;;;;;;4993774;28;20030;-78
2023/03/18 05:43:11;;;;;;;20.50;9.38;;;6.90;51.30;;;;;;4993509;28;20018;-76
2023/03/18 05:45:37;;;;;;;18.23;8.70;;;6.90;51.40;;;;;;4993727;28;20077;-78
2023/03/18 05:48:03;;;;;;;16.70;8.32;;;6.90;51.30;;;;;;4993607;28;20026;-78
2023/03/18 05:50:32;;;;;;;17.65;8.80;;;6.90;51.30;;;;;;4990143;28;20447;-79
2023/03/18 05:52:58;;;;;;;18.50;8.23;;;6.90;51.40;;;;;;4993575;28;20030;-78
2023/03/18 05:55:24;;;;;;;18.70;7.53;;;7.00;51.30;;;;;;4993546;28;20034;-78
2023/03/18 05:57:49;;;;;;;13.00;7.22;;;7.00;51.40;;;;;;4993109;28;20133;-78
2023/03/18 06:00:17;;;;;;;14.13;7.25;;;7.00;51.20;;;;;;4993465;28;20038;-78
2023/03/18 06:02:43;;;;;;;13.90;6.88;;;7.10;51.30;;;;;;4991369;28;20076;-79
2023/03/18 06:05:11;;;;;;;15.45;7.90;;;7.10;51.20;;;;;;4991700;28;20030;-78
2023/03/18 06:07:37;;;;;;;16.08;8.48;;;7.10;51.40;;;;;;4993242;28;20053;-80
2023/03/18 06:10:03;;;;;;;21.52;8.45;;;7.20;51.40;;;;;;4992134;28;20030;-78
2023/03/18 06:12:29;;;;;;;17.15;8.05;;;7.30;51.70;;;;;;4991901;28;20129;-79
2023/03/18 06:14:55;;;;;;;22.48;9.48;;;7.30;51.60;;;;;;4992897;28;20113;-79
2023/03/18 06:17:21;;;;;;;14.93;7.75;;;7.40;51.60;;;;;;4992878;28;20173;-79
2023/03/18 06:19:47;;;;;;;21.33;8.27;;;7.40;52.00;;;;;;4993147;28;20037;-79
2023/03/18 06:22:15;;;;;;;16.13;8.93;;;7.50;51.60;;;;;;4992820;28;20031;-79
2023/03/18 06:24:42;;;;;;;21.60;9.98;;;7.50;51.30;;;;;;4993023;28;20041;-78
2023/03/18 06:27:08;;;;;;;19.75;9.80;;;7.60;51.40;;;;;;4992086;28;20394;-81
2023/03/18 06:29:34;;;;;;;15.27;8.57;;;7.60;51.30;;;;;;4992655;28;20026;-80
2023/03/18 06:32:00;;;;;;;20.30;9.65;;;7.70;51.20;;;;;;4991491;28;20048;-80
2023/03/18 06:34:26;;;;;;;26.83;8.15;;;7.80;51.10;;;;;;4991357;28;20030;-80
2023/03/18 06:36:52;;;;;;;20.65;8.57;;;7.90;51.00;;;;;;4991404;28;20030;-80
2023/03/18 06:39:18;;;;;;;17.00;7.68;;;7.90;51.00;;;;;;4992402;28;20050;-80
2023/03/18 06:41:45;;;;;;;16.33;8.10;;;8.00;50.70;;;;;;4992333;28;20035;-80
2023/03/18 06:44:12;;;;;;;13.52;8.73;;;8.00;50.60;;;;;;4991364;28;20026;-80
2023/03/18 06:46:38;;;;;;;13.70;7.63;;;8.10;50.50;;;;;;4992223;28;20045;-80
2023/03/18 06:49:05;;;;;;;15.90;7.32;;;8.20;50.50;;;;;;4992281;28;20034;-80
2023/03/18 06:51:32;;;;;;;17.70;8.55;;;8.20;50.30;;;;;;4992258;28;20026;-80
2023/03/18 06:53:58;;;;;;;12.85;7.90;;;8.30;50.30;;;;;;4992591;28;20547;-80
2023/03/18 06:56:24;;;;;;;13.10;7.88;;;8.30;50.10;;;;;;4993215;28;20113;-79
2023/03/18 06:58:51;;;;;;;14.30;7.13;;;8.40;50.10;;;;;;4991233;28;20065;-80
2023/03/18 07:01:16;;;;;;;19.40;7.70;;;8.50;50.00;;;;;;4991145;28;20085;-80
2023/03/18 07:03:42;;;;;;;19.15;8.15;;;8.50;50.00;;;;;;4991493;28;20026;-79
2023/03/18 07:06:11;;;;;;;19.42;8.07;;;8.60;50.10;;;;;;4992391;28;20045;-80
2023/03/18 07:08:37;;;;;;;14.45;7.88;;;8.60;50.10;;;;;;4990955;28;20042;-80
2023/03/18 07:11:03;;;;;;;21.92;8.32;;;8.70;50.10;;;;;;4991024;28;20034;-80
2023/03/18 07:13:29;;;;;;;14.43;8.10;;;8.80;49.90;;;;;;4990969;28;20060;-80
2023/03/18 07:15:55;;;;;;;18.55;7.97;;;8.90;49.70;;;;;;4990815;28;20046;-80
2023/03/18 07:18:22;;;;;;;12.75;7.88;;;9.00;49.60;;;;;;4991114;28;20031;-80
2023/03/18 07:20:49;;;;;;;13.88;8.00;;;9.10;49.60;;;;;;4992608;28;20101;-80
2023/03/18 07:23:14;;;;;;;13.68;7.50;;;9.20;49.60;;;;;;4990853;28;20049;-80
2023/03/18 07:25:41;;;;;;;17.45;8.75;;;9.20;49.40;;;;;;4992297;28;20015;-80
2023/03/18 07:28:06;;;;;;;16.90;8.38;;;9.30;49.10;;;;;;4991917;28;20109;-80
2023/03/18 07:30:32;;;;;;;14.45;8.02;;;9.40;49.10;;;;;;4991112;28;20117;-80
2023/03/18 07:32:59;;;;;;;15.52;8.27;;;9.50;48.80;;;;;;4991058;28;20471;-80
2023/03/18 07:35:24;;;;;;;24.10;11.63;;;9.50;47.60;;;;;;4992804;28;20097;-80
2023/03/18 07:37:51;;;;;;;21.52;10.13;;;9.60;46.20;;;;;;4991128;28;20038;-80
2023/03/18 07:40:17;;;;;;;20.13;9.10;;;9.60;46.40;;;;;;4988903;28;20392;-80
2023/03/18 07:42:42;;;;;;;24.90;11.07;;;9.70;47.00;;;;;;4992977;28;20034;-80
2023/03/18 07:45:09;;;;;;;25.88;12.00;;;9.70;46.60;;;;;;4992689;28;20025;-80
2023/03/18 07:47:35;;;;;;;26.73;13.35;;;9.80;46.30;;;;;;4990673;28;20035;-80
2023/03/18 07:50:01;;;;;;;26.65;12.38;;;9.90;46.20;;;;;;4988697;28;20037;-80
2023/03/18 07:52:28;;;;;;;27.52;13.50;;;9.90;46.20;;;;;;4991970;28;20034;-79
2023/03/18 07:54:54;;;;;;;25.38;12.55;;;10.00;46.10;;;;;;4990755;28;20038;-80
2023/03/18 07:57:19;;;;;;;37.70;16.90;;;10.10;46.10;;;;;;5000889;28;20056;-80
2023/03/18 07:59:46;;;;;;;49.47;20.50;;;10.20;45.40;;;;;;4993636;28;20045;-80
2023/03/18 08:02:15;;;;;;;35.63;16.10;;;10.20;44.50;;;;;;4995546;28;20026;-80
2023/03/18 08:04:42;;;;;;;25.85;12.68;;;10.30;44.80;;;;;;4994173;28;20073;-80
2023/03/18 08:07:09;;;;;;;24.38;12.15;;;10.40;45.00;;;;;;4995524;28;20062;-80
2023/03/18 08:09:35;;;;;;;20.60;10.20;;;10.50;44.80;;;;;;4995726;28;20125;-80
2023/03/18 08:12:01;;;;;;;12.32;6.93;;;10.60;43.80;;;;;;4995719;28;20030;-81
2023/03/18 08:14:27;;;;;;;12.00;6.80;;;10.60;43.60;;;;;;4995590;28;20112;-80
2023/03/18 08:16:53;;;;;;;13.60;7.22;;;10.70;43.60;;;;;;4995206;28;20097;-80
2023/03/18 08:19:18;;;;;;;13.60;6.68;;;10.80;42.70;;;;;;4994219;28;20034;-80
2023/03/18 08:21:44;;;;;;;12.43;7.00;;;10.80;43.20;;;;;;4995619;28;20027;-80
2023/03/18 08:24:10;;;;;;;13.20;6.55;;;10.90;43.00;;;;;;4995023;28;20041;-80
2023/03/18 08:26:36;;;;;;;12.23;7.05;;;11.00;43.20;;;;;;4993411;28;20033;-81
2023/03/18 08:29:02;;;;;;;12.48;6.65;;;11.10;43.10;;;;;;4995766;28;20403;-80
2023/03/18 08:31:28;;;;;;;21.40;10.15;;;11.10;42.20;;;;;;4991476;28;20114;-80
2023/03/18 08:33:55;;;;;;;20.67;9.52;;;11.20;41.40;;;;;;4995808;28;20066;-81
2023/03/18 08:36:22;;;;;;;20.50;9.05;;;11.20;41.60;;;;;;4995665;28;20034;-80
2023/03/18 08:38:48;;;;;;;17.33;9.55;;;11.30;41.90;;;;;;5005936;28;20053;-80
2023/03/18 08:41:15;;;;;;;20.65;9.88;;;11.30;41.30;;;;;;5007967;28;20462;-79
2023/03/18 08:43:42;;;;;;;16.27;8.82;;;11.40;41.30;;;;;;5008533;28;20100;-80
2023/03/18 08:46:07;;;;;;;16.73;8.65;;;11.50;41.70;;;;;;5008070;28;20034;-79
2023/03/18 08:48:34;;;;;;;13.95;8.02;;;11.50;41.40;;;;;;5007883;28;20052;-79
2023/03/18 08:51:07;;;;;;;14.73;7.97;;;11.60;41.50;;;;;;4993682;28;20030;-80
2023/03/18 08:53:33;;;;;;;17.17;8.20;;;11.60;41.40;;;;;;4993738;28;20030;-81
2023/03/18 08:56:00;;;;;;;18.90;8.80;;;11.70;41.50;;;;;;4995685;28;20026;-80
2023/03/18 08:58:26;;;;;;;22.67;9.18;;;11.80;41.30;;;;;;5002382;28;20022;-81
2023/03/18 09:00:54;;;;;;;21.38;9.18;;;11.90;41.40;;;;;;4993336;28;20114;-80
2023/03/18 09:03:20;;;;;;;20.05;9.27;;;11.90;40.90;;;;;;4994534;28;20116;-81
2023/03/18 09:05:51;;;;;;;16.88;8.13;;;12.00;40.50;;;;;;4994769;28;20054;-80
2023/03/18 09:08:17;;;;;;;16.27;7.50;;;12.00;40.90;;;;;;4992145;28;20447;-80
2023/03/18 09:10:49;;;;;;;18.88;7.53;;;12.10;40.70;;;;;;4993220;28;20026;-80
2023/03/18 09:13:15;;;;;;;16.48;7.82;;;12.20;40.50;;;;;;4992066;28;20096;-81
2023/03/18 09:15:41;;;;;;;11.00;5.93;;;12.20;40.80;;;;;;4992433;28;20502;-81
2023/03/18 09:18:07;;;;;;;16.02;6.90;;;12.30;40.90;;;;;;4993133;28;20034;-81
2023/03/18 09:20:33;;;;;;;13.00;6.80;;;12.40;40.90;;;;;;4992900;28;20033;-81
2023/03/18 09:22:59;;;;;;;14.88;7.18;;;12.50;40.40;;;;;;4994347;28;20043;-80
2023/03/18 09:25:26;;;;;;;15.27;6.70;;;12.50;40.60;;;;;;4994151;28;20357;-81
2023/03/18 09:27:52;;;;;;;13.82;6.25;;;12.60;40.40;;;;;;4992470;28;20172;-81
2023/03/18 09:30:19;;;;;;;17.48;6.97;;;12.60;40.20;;;;;;4993985;28;20058;-81
2023/03/18 09:32:45;;;;;;;14.23;6.65;;;12.70;40.20;;;;;;4992723;28;20518;-80
2023/03/18 09:35:11;;;;;;;14.90;7.07;;;12.80;40.10;;;;;;4992383;28;20031;-79
2023/03/18 09:37:37;;;;;;;17.15;7.47;;;12.80;40.00;;;;;;4993841;28;20026;-80
2023/03/18 09:40:09;;;;;;;17.05;7.15;;;12.90;40.10;;;;;;4993840;28;20054;-80
2023/03/18 09:42:50;;;;;;;14.93;7.25;;;12.90;40.10;;;;;;4992460;28;20034;-79
2023/03/18 09:45:24;;;;;;;13.07;7.03;;;13.00;40.00;;;;;;4993576;28;20029;-80
2023/03/18 09:48:18;;;;;;;16.48;6.70;;;13.10;40.10;;;;;;4993657;28;20379;-80
2023/03/18 09:51:07;;;;;;;13.55;6.90;;;13.10;40.10;;;;;;4965099;28;20042;-80
2023/03/18 09:53:36;;;;;;;31.70;9.05;;;13.30;39.90;;;;;;4991785;28;20566;-81
2023/03/18 09:56:03;;;;;;;17.42;8.57;;;13.30;39.20;;;;;;4992157;28;20042;-79
2023/03/18 09:58:49;;;;;;;15.77;8.27;;;13.40;39.20;;;;;;4991989;28;20018;-80
2023/03/18 10:01:16;;;;;;;19.20;8.10;;;13.40;39.40;;;;;;4990782;28;20394;-80
2023/03/18 10:03:59;;;;;;;13.98;7.55;;;13.50;39.40;;;;;;4993144;28;20109;-80
2023/03/18 10:06:26;;;;;;;13.60;8.17;;;13.50;39.50;;;;;;4998363;28;20126;-80
2023/03/18 10:09:07;;;;;;;14.98;7.40;;;13.60;39.60;;;;;;4992067;28;20090;-80
2023/03/18 10:11:36;;;;;;;22.27;8.07;;;13.70;39.40;;;;;;4992204;28;20018;-80
2023/03/18 10:14:10;;;;;;;16.80;7.93;;;13.80;39.40;;;;;;4991950;28;20109;-80
2023/03/18 10:16:50;;;;;;;15.98;7.80;;;13.80;39.40;;;;;;4989299;28;20050;-80
2023/03/18 10:19:16;;;;;;;15.82;8.43;;;13.90;39.20;;;;;;4989886;28;20059;-80
2023/03/18 10:22:18;;;;;;;14.25;7.30;;;14.00;39.30;;;;;;4991684;28;20065;-80
2023/03/18 10:25:07;;;;;;;15.27;7.18;;;14.00;39.10;;;;;;4970362;28;20050;-80
2023/03/18 10:28:04;;;;;;;23.08;10.23;;;14.10;39.20;;;;;;4991221;28;20038;-80
2023/03/18 10:30:36;;;;;;;19.73;9.50;;;14.10;37.90;;;;;;4989560;28;20050;-80
2023/03/18 10:33:07;;;;;;;20.20;9.43;;;14.10;38.30;;;;;;4991496;28;20026;-80
2023/03/18 10:35:50;;;;;;;18.02;8.57;;;14.20;38.40;;;;;;4991163;28;20105;-80
2023/03/18 10:38:50;;;;;;;16.08;8.70;;;14.20;38.60;;;;;;4991475;28;20092;-80
2023/03/18 10:41:35;;;;;;;24.52;8.60;;;14.30;38.70;;;;;;4968025;28;20038;-80
2023/03/18 10:44:29;;;;;;;23.58;10.18;;;14.30;38.50;;;;;;4990789;28;20022;-80
2023/03/18 10:47:07;;;;;;;16.45;9.20;;;14.30;37.90;;;;;;4991554;28;20107;-80
2023/03/18 10:49:37;;;;;;;25.23;10.32;;;14.40;38.40;;;;;;4990877;28;20249;-80
2023/03/18 10:52:26;;;;;;;27.45;11.88;;;14.50;38.40;;;;;;4990908;28;20475;-80
2023/03/18 10:54:52;;;;;;;18.85;10.30;;;14.50;37.70;;;;;;4991432;28;20037;-80
2023/03/18 10:57:20;;;;;;;31.52;12.00;;;14.60;38.00;;;;;;4992365;28;20038;-80
2023/03/18 10:59:48;;;;;;;23.25;11.45;;;14.70;37.70;;;;;;4992343;28;20057;-80
2023/03/18 11:02:29;;;;;;;20.80;11.25;;;14.80;37.80;;;;;;4992394;28;20030;-79
2023/03/18 11:05:11;;;;;;;24.80;11.90;;;14.90;37.40;;;;;;4991725;28;20396;-80
2023/03/18 11:08:00;;;;;;;19.95;10.57;;;14.90;37.10;;;;;;4990716;28;20030;-80
2023/03/18 11:10:45;;;;;;;20.50;10.00;;;15.00;37.50;;;;;;4991614;28;20041;-80
2023/03/18 11:13:19;;;;;;;19.48;10.57;;;15.10;37.20;;;;;;4991820;28;20029;-79
2023/03/18 11:15:55;;;;;;;16.35;9.00;;;15.10;36.90;;;;;;4989642;28;20042;-80
2023/03/18 11:18:24;;;;;;;17.58;10.55;;;15.30;37.50;;;;;;4992324;28;20061;-80
2023/03/18 11:20:59;;;;;;;21.55;10.63;;;15.30;36.60;;;;;;4992304;28;20049;-80
2023/03/18 11:24:07;;;;;;;20.08;10.13;;;15.30;36.70;;;;;;4992270;28;20049;-80
2023/03/18 11:26:46;;;;;;;16.38;9.18;;;15.40;37.00;;;;;;4990642;28;20034;-79
2023/03/18 11:29:17;;;;;;;20.83;11.38;;;15.60;37.30;;;;;;4989430;28;20030;-80
2023/03/18 11:31:57;;;;;;;23.08;10.63;;;15.60;36.70;;;;;;4986197;28;20023;-80
2023/03/18 11:34:24;;;;;;;20.85;10.95;;;15.70;36.90;;;;;;4995233;28;20038;-80
2023/03/18 11:37:11;;;;;;;18.92;9.88;;;15.80;37.20;;;;;;4994844;28;20500;-80
2023/03/18 11:39:40;;;;;;;16.33;9.50;;;15.90;37.40;;;;;;4995947;28;20121;-80
2023/03/18 11:42:20;;;;;;;18.50;10.50;;;15.90;37.40;;;;;;4996002;28;20030;-81
2023/03/18 11:44:53;;;;;;;19.02;10.30;;;16.00;37.30;;;;;;4994473;28;20040;-80
2023/03/18 11:47:23;;;;;;;24.50;11.55;;;16.10;37.10;;;;;;4993615;28;20491;-80
2023/03/18 11:49:49;;;;;;;24.63;10.73;;;16.20;37.20;;;;;;4995090;28;20041;-80
2023/03/18 11:52:56;;;;;;;19.77;10.55;;;16.30;37.20;;;;;;4994049;28;20030;-80
2023/03/18 11:55:55;;;;;;;21.35;11.82;;;16.40;36.60;;;;;;4916017;29;20044;-80
2023/03/18 11:58:47;;;;;;;21.23;10.75;;;16.50;36.40;;;;;;4915389;29;20036;-80
2023/03/18 12:01:22;;;;;;;20.38;10.45;;;16.60;36.50;;;;;;4916521;29;20029;-80
2023/03/18 12:04:03;;;;;;;17.65;10.25;;;16.70;36.80;;;;;;4916429;29;20060;-80
2023/03/18 12:06:34;;;;;;;19.70;11.38;;;16.80;36.30;;;;;;4900764;29;20118;-80
2023/03/18 12:09:33;;;;;;;22.50;10.90;;;16.80;36.00;;;;;;4900908;29;20056;-80
2023/03/18 12:12:33;;;;;;;21.17;10.25;;;16.90;36.20;;;;;;4916158;29;20048;-80
2023/03/18 12:15:20;;;;;;;17.15;9.98;;;17.00;36.30;;;;;;4916265;29;20185;-79
2023/03/18 12:17:48;;;;;;;16.80;9.63;;;17.00;36.30;;;;;;4898899;29;20055;-81
2023/03/18 12:20:52;;;;;;;18.88;10.80;;;17.10;36.50;;;;;;4914898;29;20087;-80
2023/03/18 12:23:36;;;;;;;20.07;11.87;;;17.20;36.50;;;;;;4898743;29;20055;-81
2023/03/18 12:26:12;;;;;;;20.00;10.98;;;17.20;36.00;;;;;;4899447;29;20039;-81
2023/03/18 12:28:43;;;;;;;21.60;11.60;;;17.30;35.90;;;;;;4897130;29;20028;-81
2023/03/18 12:31:18;;;;;;;23.60;11.30;;;17.30;35.40;;;;;;4964550;28;20031;-81
2023/03/18 12:33:56;;;;;;;21.55;12.05;;;17.40;35.40;;;;;;4993523;28;20379;-81
2023/03/18 12:36:56;;;;;;;18.70;10.63;;;17.40;35.70;;;;;;4993785;28;20105;-81
2023/03/18 12:39:46;;;;;;;20.38;10.05;;;17.50;36.00;;;;;;4992951;28;20100;-81
2023/03/18 12:42:25;;;;;;;18.63;10.95;;;17.70;36.10;;;;;;4992308;28;20019;-81
2023/03/18 12:45:00;;;;;;;17.10;10.18;;;17.80;35.90;;;;;;4990623;28;20029;-81
2023/03/18 12:47:35;;;;;;;23.70;10.85;;;17.90;35.80;;;;;;4993380;28;20026;-81
2023/03/18 12:50:12;;;;;;;17.88;10.00;;;17.90;35.50;;;;;;4993978;28;20494;-81
2023/03/18 12:52:47;;;;;;;20.25;10.60;;;18.00;35.50;;;;;;4992270;28;20070;-82
2023/03/18 12:55:50;;;;;;;19.98;11.60;;;18.10;34.80;;;;;;4993875;28;20029;-81
2023/03/18 12:58:27;;;;;;;19.42;9.98;;;18.20;34.40;;;;;;4914124;29;20443;-81